sensor_id;sensor_type;location;lat;lon;timestamp;P1;durP1;ratioP1;P2;durP2;ratioP2
12363;SDS011;6246;50.826;4.712;2023-12-22T00:00:15;22.30;;;18.50;;
12363;SDS011;6246;50.826;4.712;2023-12-22T00:02:41;22.93;;;18.83;;
12363;SDS011;6246;50.826;4.712;2023-12-22T00:05:07;20.90;;;17.43;;
12363;SDS011;6246;50.826;4.712;2023-12-22T00:07:33;22.73;;;18.03;;
12363;SDS011;6246;50.826;4.712;2023-12-22T00:09:59;23.00;;;17.70;;
12363;SDS011;6246;50.826;4.712;2023-12-22T00:12:25;23.53;;;17.63;;
12363;SDS011;6246;50.826;4.712;2023-12-22T00:14:51;20.37;;;17.93;;
12363;SDS011;6246;50.826;4.712;2023-12-22T00:17:17;19.90;;;16.93;;
12363;SDS011;6246;50.826;4.712;2023-12-22T00:19:43;20.67;;;17.07;;
12363;SDS011;6246;50.826;4.712;2023-12-22T00:22:09;19.57;;;16.37;;
12363;SDS011;6246;50.826;4.712;2023-12-22T00:24:35;19.67;;;16.47;;
12363;SDS011;6246;50.826;4.712;2023-12-22T00:27:01;20.67;;;16.83;;
12363;SDS011;6246;50.826;4.712;2023-12-22T00:29:28;18.80;;;15.67;;
12363;SDS011;6246;50.826;4.712;2023-12-22T00:31:54;20.13;;;15.73;;
12363;SDS011;6246;50.826;4.712;2023-12-22T00:34:21;19.10;;;14.97;;
12363;SDS011;6246;50.826;4.712;2023-12-22T00:36:47;17.77;;;14.87;;
12363;SDS011;6246;50.826;4.712;2023-12-22T00:39:13;19.57;;;16.23;;
12363;SDS011;6246;50.826;4.712;2023-12-22T00:41:39;18.20;;;14.63;;
12363;SDS011;6246;50.826;4.712;2023-12-22T00:44:05;18.37;;;14.63;;
12363;SDS011;6246;50.826;4.712;2023-12-22T00:46:31;17.60;;;14.17;;
12363;SDS011;6246;50.826;4.712;2023-12-22T00:48:57;18.10;;;14.40;;
12363;SDS011;6246;50.826;4.712;2023-12-22T00:51:23;17.60;;;14.40;;
12363;SDS011;6246;50.826;4.712;2023-12-22T00:53:49;17.00;;;13.03;;
12363;SDS011;6246;50.826;4.712;2023-12-22T00:56:15;17.07;;;13.47;;
12363;SDS011;6246;50.826;4.712;2023-12-22T00:58:41;16.67;;;13.30;;
12363;SDS011;6246;50.826;4.712;2023-12-22T01:01:07;16.67;;;13.13;;
12363;SDS011;6246;50.826;4.712;2023-12-22T01:03:33;16.63;;;12.87;;
12363;SDS011;6246;50.826;4.712;2023-12-22T01:05:59;15.37;;;12.60;;
12363;SDS011;6246;50.826;4.712;2023-12-22T01:08:25;16.53;;;12.90;;
12363;SDS011;6246;50.826;4.712;2023-12-22T01:10:51;16.13;;;11.63;;
12363;SDS011;6246;50.826;4.712;2023-12-22T01:13:17;16.50;;;12.30;;
12363;SDS011;6246;50.826;4.712;2023-12-22T01:15:43;15.03;;;12.17;;
12363;SDS011;6246;50.826;4.712;2023-12-22T01:18:10;15.57;;;12.27;;
12363;SDS011;6246;50.826;4.712;2023-12-22T01:20:36;14.67;;;11.23;;
12363;SDS011;6246;50.826;4.712;2023-12-22T01:23:02;13.83;;;11.40;;
12363;SDS011;6246;50.826;4.712;2023-12-22T01:25:28;14.90;;;11.90;;
12363;SDS011;6246;50.826;4.712;2023-12-22T01:27:54;14.63;;;11.57;;
12363;SDS011;6246;50.826;4.712;2023-12-22T01:30:20;15.63;;;11.37;;
12363;SDS011;6246;50.826;4.712;2023-12-22T01:32:46;15.67;;;11.13;;
12363;SDS011;6246;50.826;4.712;2023-12-22T01:35:12;14.80;;;11.73;;
12363;SDS011;6246;50.826;4.712;2023-12-22T01:37:39;14.37;;;11.00;;
12363;SDS011;6246;50.826;4.712;2023-12-22T01:40:05;14.13;;;11.03;;
12363;SDS011;6246;50.826;4.712;2023-12-22T01:42:32;17.23;;;10.73;;
12363;SDS011;6246;50.826;4.712;2023-12-22T01:44:58;15.33;;;10.63;;
12363;SDS011;6246;50.826;4.712;2023-12-22T01:47:24;13.17;;;10.00;;
12363;SDS011;6246;50.826;4.712;2023-12-22T01:49:50;13.53;;;9.70;;
12363;SDS011;6246;50.826;4.712;2023-12-22T01:52:16;13.03;;;10.27;;
12363;SDS011;6246;50.826;4.712;2023-12-22T01:54:42;13.33;;;9.93;;
12363;SDS011;6246;50.826;4.712;2023-12-22T01:57:08;12.63;;;9.57;;
12363;SDS011;6246;50.826;4.712;2023-12-22T01:59:35;15.33;;;9.73;;
12363;SDS011;6246;50.826;4.712;2023-12-22T02:02:02;11.93;;;9.23;;
12363;SDS011;6246;50.826;4.712;2023-12-22T02:04:28;11.53;;;9.27;;
12363;SDS011;6246;50.826;4.712;2023-12-22T02:06:56;13.30;;;9.37;;
12363;SDS011;6246;50.826;4.712;2023-12-22T02:09:23;13.07;;;9.13;;
12363;SDS011;6246;50.826;4.712;2023-12-22T02:11:49;11.63;;;8.80;;
12363;SDS011;6246;50.826;4.712;2023-12-22T02:14:15;11.93;;;8.53;;
12363;SDS011;6246;50.826;4.712;2023-12-22T02:16:43;13.93;;;9.13;;
12363;SDS011;6246;50.826;4.712;2023-12-22T02:19:37;12.23;;;8.70;;
12363;SDS011;6246;50.826;4.712;2023-12-22T02:22:01;11.97;;;8.40;;
12363;SDS011;6246;50.826;4.712;2023-12-22T02:24:27;13.07;;;8.90;;
12363;SDS011;6246;50.826;4.712;2023-12-22T02:26:55;10.70;;;8.00;;
12363;SDS011;6246;50.826;4.712;2023-12-22T02:29:22;12.10;;;9.10;;
12363;SDS011;6246;50.826;4.712;2023-12-22T02:31:49;10.27;;;7.87;;
12363;SDS011;6246;50.826;4.712;2023-12-22T02:34:18;10.13;;;7.63;;
12363;SDS011;6246;50.826;4.712;2023-12-22T02:36:45;12.07;;;8.40;;
12363;SDS011;6246;50.826;4.712;2023-12-22T02:39:11;9.80;;;7.87;;
12363;SDS011;6246;50.826;4.712;2023-12-22T02:41:38;10.00;;;7.80;;
12363;SDS011;6246;50.826;4.712;2023-12-22T02:44:04;10.47;;;7.73;;
12363;SDS011;6246;50.826;4.712;2023-12-22T02:46:31;9.27;;;7.13;;
12363;SDS011;6246;50.826;4.712;2023-12-22T02:48:57;13.33;;;8.07;;
12363;SDS011;6246;50.826;4.712;2023-12-22T02:51:23;11.27;;;7.43;;
12363;SDS011;6246;50.826;4.712;2023-12-22T02:53:49;10.23;;;7.70;;
12363;SDS011;6246;50.826;4.712;2023-12-22T02:56:15;12.03;;;7.23;;
12363;SDS011;6246;50.826;4.712;2023-12-22T02:58:41;9.73;;;6.97;;
12363;SDS011;6246;50.826;4.712;2023-12-22T03:01:07;9.43;;;6.87;;
12363;SDS011;6246;50.826;4.712;2023-12-22T03:03:33;9.30;;;6.67;;
12363;SDS011;6246;50.826;4.712;2023-12-22T03:05:59;10.70;;;6.67;;
12363;SDS011;6246;50.826;4.712;2023-12-22T03:08:25;9.10;;;6.63;;
12363;SDS011;6246;50.826;4.712;2023-12-22T03:10:51;9.23;;;6.70;;
12363;SDS011;6246;50.826;4.712;2023-12-22T03:13:17;10.07;;;6.63;;
12363;SDS011;6246;50.826;4.712;2023-12-22T03:15:43;10.63;;;6.70;;
12363;SDS011;6246;50.826;4.712;2023-12-22T03:18:09;10.70;;;6.70;;
12363;SDS011;6246;50.826;4.712;2023-12-22T03:20:35;9.00;;;6.23;;
12363;SDS011;6246;50.826;4.712;2023-12-22T03:23:01;9.50;;;6.40;;
12363;SDS011;6246;50.826;4.712;2023-12-22T03:25:27;8.77;;;6.17;;
12363;SDS011;6246;50.826;4.712;2023-12-22T03:27:53;7.73;;;5.97;;
12363;SDS011;6246;50.826;4.712;2023-12-22T03:30:19;9.40;;;6.57;;
12363;SDS011;6246;50.826;4.712;2023-12-22T03:32:45;8.73;;;6.00;;
12363;SDS011;6246;50.826;4.712;2023-12-22T03:35:11;9.27;;;6.30;;
12363;SDS011;6246;50.826;4.712;2023-12-22T03:37:37;8.40;;;6.30;;
12363;SDS011;6246;50.826;4.712;2023-12-22T03:40:03;6.47;;;5.43;;
12363;SDS011;6246;50.826;4.712;2023-12-22T03:42:29;9.17;;;6.07;;
12363;SDS011;6246;50.826;4.712;2023-12-22T03:44:55;8.90;;;5.90;;
12363;SDS011;6246;50.826;4.712;2023-12-22T03:47:21;8.13;;;5.70;;
12363;SDS011;6246;50.826;4.712;2023-12-22T03:49:47;8.80;;;5.87;;
12363;SDS011;6246;50.826;4.712;2023-12-22T03:52:13;7.07;;;5.40;;
12363;SDS011;6246;50.826;4.712;2023-12-22T03:54:39;7.20;;;5.40;;
12363;SDS011;6246;50.826;4.712;2023-12-22T03:57:05;8.27;;;5.80;;
12363;SDS011;6246;50.826;4.712;2023-12-22T03:59:31;6.53;;;5.30;;
12363;SDS011;6246;50.826;4.712;2023-12-22T04:01:57;7.90;;;5.20;;
12363;SDS011;6246;50.826;4.712;2023-12-22T04:04:26;6.20;;;4.90;;
12363;SDS011;6246;50.826;4.712;2023-12-22T04:06:53;8.53;;;5.40;;
12363;SDS011;6246;50.826;4.712;2023-12-22T04:09:19;7.00;;;5.20;;
12363;SDS011;6246;50.826;4.712;2023-12-22T04:11:45;7.33;;;4.87;;
12363;SDS011;6246;50.826;4.712;2023-12-22T04:14:11;6.70;;;4.87;;
12363;SDS011;6246;50.826;4.712;2023-12-22T04:16:37;7.57;;;4.80;;
12363;SDS011;6246;50.826;4.712;2023-12-22T04:19:03;8.40;;;5.17;;
12363;SDS011;6246;50.826;4.712;2023-12-22T04:21:30;6.80;;;4.90;;
12363;SDS011;6246;50.826;4.712;2023-12-22T04:23:56;7.37;;;5.23;;
12363;SDS011;6246;50.826;4.712;2023-12-22T04:26:22;7.27;;;5.13;;
12363;SDS011;6246;50.826;4.712;2023-12-22T04:28:48;9.17;;;5.30;;
12363;SDS011;6246;50.826;4.712;2023-12-22T04:31:14;6.90;;;4.50;;
12363;SDS011;6246;50.826;4.712;2023-12-22T04:33:40;6.43;;;4.60;;
12363;SDS011;6246;50.826;4.712;2023-12-22T04:36:06;7.90;;;5.30;;
12363;SDS011;6246;50.826;4.712;2023-12-22T04:38:32;8.17;;;4.73;;
12363;SDS011;6246;50.826;4.712;2023-12-22T04:40:58;5.90;;;4.40;;
12363;SDS011;6246;50.826;4.712;2023-12-22T04:43:24;5.57;;;4.30;;
12363;SDS011;6246;50.826;4.712;2023-12-22T04:45:50;7.23;;;4.80;;
12363;SDS011;6246;50.826;4.712;2023-12-22T04:48:16;6.10;;;4.70;;
12363;SDS011;6246;50.826;4.712;2023-12-22T04:50:42;6.37;;;4.80;;
12363;SDS011;6246;50.826;4.712;2023-12-22T04:53:08;6.80;;;4.40;;
12363;SDS011;6246;50.826;4.712;2023-12-22T04:55:34;9.53;;;4.97;;
12363;SDS011;6246;50.826;4.712;2023-12-22T04:58:00;7.03;;;4.40;;
12363;SDS011;6246;50.826;4.712;2023-12-22T05:00:26;4.63;;;4.03;;
12363;SDS011;6246;50.826;4.712;2023-12-22T05:02:53;5.83;;;4.40;;
12363;SDS011;6246;50.826;4.712;2023-12-22T05:05:19;14.60;;;4.80;;
12363;SDS011;6246;50.826;4.712;2023-12-22T05:07:45;5.37;;;4.10;;
12363;SDS011;6246;50.826;4.712;2023-12-22T05:10:11;7.00;;;4.17;;
12363;SDS011;6246;50.826;4.712;2023-12-22T05:12:37;5.17;;;4.10;;
12363;SDS011;6246;50.826;4.712;2023-12-22T05:15:03;5.60;;;4.33;;
12363;SDS011;6246;50.826;4.712;2023-12-22T05:17:29;7.37;;;4.27;;
12363;SDS011;6246;50.826;4.712;2023-12-22T05:19:55;5.03;;;3.97;;
12363;SDS011;6246;50.826;4.712;2023-12-22T05:22:21;6.43;;;4.30;;
12363;SDS011;6246;50.826;4.712;2023-12-22T05:24:47;6.47;;;4.20;;
12363;SDS011;6246;50.826;4.712;2023-12-22T05:27:13;6.50;;;4.20;;
12363;SDS011;6246;50.826;4.712;2023-12-22T05:29:39;5.37;;;4.10;;
12363;SDS011;6246;50.826;4.712;2023-12-22T05:32:05;4.57;;;3.90;;
12363;SDS011;6246;50.826;4.712;2023-12-22T05:34:32;5.23;;;3.83;;
12363;SDS011;6246;50.826;4.712;2023-12-22T05:36:58;4.10;;;3.30;;
12363;SDS011;6246;50.826;4.712;2023-12-22T05:39:24;5.90;;;3.80;;
12363;SDS011;6246;50.826;4.712;2023-12-22T05:41:50;4.23;;;3.60;;
12363;SDS011;6246;50.826;4.712;2023-12-22T05:44:16;4.53;;;3.60;;
12363;SDS011;6246;50.826;4.712;2023-12-22T05:46:42;4.93;;;3.90;;
12363;SDS011;6246;50.826;4.712;2023-12-22T05:49:08;5.73;;;3.70;;
12363;SDS011;6246;50.826;4.712;2023-12-22T05:51:40;5.57;;;3.83;;
12363;SDS011;6246;50.826;4.712;2023-12-22T05:54:09;4.17;;;3.47;;
12363;SDS011;6246;50.826;4.712;2023-12-22T05:56:36;5.47;;;3.83;;
12363;SDS011;6246;50.826;4.712;2023-12-22T05:59:02;5.30;;;3.70;;
12363;SDS011;6246;50.826;4.712;2023-12-22T06:01:28;6.43;;;3.60;;
12363;SDS011;6246;50.826;4.712;2023-12-22T06:03:54;6.17;;;3.43;;
12363;SDS011;6246;50.826;4.712;2023-12-22T06:06:21;4.33;;;3.43;;
12363;SDS011;6246;50.826;4.712;2023-12-22T06:08:47;4.73;;;3.50;;
12363;SDS011;6246;50.826;4.712;2023-12-22T06:11:13;9.60;;;3.83;;
12363;SDS011;6246;50.826;4.712;2023-12-22T06:13:39;5.07;;;3.80;;
12363;SDS011;6246;50.826;4.712;2023-12-22T06:16:06;4.57;;;3.37;;
12363;SDS011;6246;50.826;4.712;2023-12-22T06:18:32;5.93;;;3.67;;
12363;SDS011;6246;50.826;4.712;2023-12-22T06:20:58;6.23;;;3.50;;
12363;SDS011;6246;50.826;4.712;2023-12-22T06:23:24;5.37;;;3.20;;
12363;SDS011;6246;50.826;4.712;2023-12-22T06:25:50;4.23;;;3.27;;
12363;SDS011;6246;50.826;4.712;2023-12-22T06:28:16;4.60;;;3.50;;
12363;SDS011;6246;50.826;4.712;2023-12-22T06:30:42;4.93;;;3.40;;
12363;SDS011;6246;50.826;4.712;2023-12-22T06:33:09;4.23;;;3.50;;
12363;SDS011;6246;50.826;4.712;2023-12-22T06:35:36;5.40;;;3.37;;
12363;SDS011;6246;50.826;4.712;2023-12-22T06:38:02;6.07;;;2.83;;
12363;SDS011;6246;50.826;4.712;2023-12-22T06:40:30;5.87;;;3.33;;
12363;SDS011;6246;50.826;4.712;2023-12-22T06:42:56;4.60;;;3.33;;
12363;SDS011;6246;50.826;4.712;2023-12-22T06:45:22;6.10;;;3.53;;
12363;SDS011;6246;50.826;4.712;2023-12-22T06:47:48;6.63;;;3.10;;
12363;SDS011;6246;50.826;4.712;2023-12-22T06:50:14;6.13;;;3.10;;
12363;SDS011;6246;50.826;4.712;2023-12-22T06:52:40;5.47;;;3.33;;
12363;SDS011;6246;50.826;4.712;2023-12-22T06:55:06;13.30;;;3.60;;
12363;SDS011;6246;50.826;4.712;2023-12-22T06:57:32;4.20;;;3.20;;
12363;SDS011;6246;50.826;4.712;2023-12-22T06:59:58;6.40;;;3.20;;
12363;SDS011;6246;50.826;4.712;2023-12-22T07:02:25;5.00;;;3.37;;
12363;SDS011;6246;50.826;4.712;2023-12-22T07:07:35;4.97;;;3.17;;
12363;SDS011;6246;50.826;4.712;2023-12-22T07:10:01;3.13;;;2.80;;
12363;SDS011;6246;50.826;4.712;2023-12-22T07:12:28;4.53;;;3.13;;
12363;SDS011;6246;50.826;4.712;2023-12-22T07:14:54;6.13;;;3.30;;
12363;SDS011;6246;50.826;4.712;2023-12-22T07:17:20;5.17;;;2.70;;
12363;SDS011;6246;50.826;4.712;2023-12-22T07:19:46;3.87;;;2.90;;
12363;SDS011;6246;50.826;4.712;2023-12-22T07:22:12;4.37;;;2.87;;
12363;SDS011;6246;50.826;4.712;2023-12-22T07:24:39;7.37;;;3.00;;
12363;SDS011;6246;50.826;4.712;2023-12-22T07:27:05;4.97;;;3.37;;
12363;SDS011;6246;50.826;4.712;2023-12-22T07:29:31;4.27;;;2.77;;
12363;SDS011;6246;50.826;4.712;2023-12-22T07:31:57;4.57;;;3.00;;
12363;SDS011;6246;50.826;4.712;2023-12-22T07:34:24;5.17;;;3.27;;
12363;SDS011;6246;50.826;4.712;2023-12-22T07:36:50;5.00;;;3.13;;
12363;SDS011;6246;50.826;4.712;2023-12-22T07:39:18;4.23;;;3.00;;
12363;SDS011;6246;50.826;4.712;2023-12-22T07:41:44;3.70;;;2.77;;
12363;SDS011;6246;50.826;4.712;2023-12-22T07:44:10;3.80;;;2.70;;
12363;SDS011;6246;50.826;4.712;2023-12-22T07:46:36;6.57;;;2.90;;
12363;SDS011;6246;50.826;4.712;2023-12-22T07:49:02;8.23;;;3.30;;
12363;SDS011;6246;50.826;4.712;2023-12-22T07:51:28;7.43;;;5.07;;
12363;SDS011;6246;50.826;4.712;2023-12-22T07:53:54;9.10;;;6.33;;
12363;SDS011;6246;50.826;4.712;2023-12-22T07:56:20;14.53;;;10.17;;
12363;SDS011;6246;50.826;4.712;2023-12-22T07:58:46;22.27;;;16.63;;
12363;SDS011;6246;50.826;4.712;2023-12-22T08:01:12;20.30;;;14.10;;
12363;SDS011;6246;50.826;4.712;2023-12-22T08:03:40;29.43;;;18.70;;
12363;SDS011;6246;50.826;4.712;2023-12-22T08:06:06;33.07;;;20.00;;
12363;SDS011;6246;50.826;4.712;2023-12-22T08:08:33;31.17;;;22.83;;
12363;SDS011;6246;50.826;4.712;2023-12-22T08:10:59;33.00;;;24.23;;
12363;SDS011;6246;50.826;4.712;2023-12-22T08:13:25;39.93;;;29.07;;
12363;SDS011;6246;50.826;4.712;2023-12-22T08:15:52;34.47;;;25.60;;
12363;SDS011;6246;50.826;4.712;2023-12-22T08:18:18;32.67;;;23.20;;
12363;SDS011;6246;50.826;4.712;2023-12-22T08:20:44;31.53;;;23.57;;
12363;SDS011;6246;50.826;4.712;2023-12-22T08:23:11;23.60;;;17.13;;
12363;SDS011;6246;50.826;4.712;2023-12-22T08:25:37;29.37;;;22.37;;
12363;SDS011;6246;50.826;4.712;2023-12-22T08:28:05;31.77;;;23.73;;
12363;SDS011;6246;50.826;4.712;2023-12-22T08:30:32;32.00;;;24.27;;
12363;SDS011;6246;50.826;4.712;2023-12-22T08:32:58;37.70;;;27.50;;
12363;SDS011;6246;50.826;4.712;2023-12-22T08:35:24;42.43;;;31.97;;
12363;SDS011;6246;50.826;4.712;2023-12-22T08:37:50;38.50;;;28.67;;
12363;SDS011;6246;50.826;4.712;2023-12-22T08:40:16;33.83;;;25.20;;
12363;SDS011;6246;50.826;4.712;2023-12-22T08:42:43;34.80;;;27.57;;
12363;SDS011;6246;50.826;4.712;2023-12-22T08:45:09;34.40;;;26.83;;
12363;SDS011;6246;50.826;4.712;2023-12-22T08:47:35;36.50;;;27.33;;
12363;SDS011;6246;50.826;4.712;2023-12-22T08:50:01;36.57;;;28.20;;
12363;SDS011;6246;50.826;4.712;2023-12-22T08:52:29;36.67;;;28.60;;
12363;SDS011;6246;50.826;4.712;2023-12-22T08:54:55;38.23;;;29.57;;
12363;SDS011;6246;50.826;4.712;2023-12-22T08:57:21;36.00;;;28.30;;
12363;SDS011;6246;50.826;4.712;2023-12-22T08:59:47;39.00;;;28.80;;
12363;SDS011;6246;50.826;4.712;2023-12-22T09:02:13;46.57;;;37.87;;
12363;SDS011;6246;50.826;4.712;2023-12-22T09:04:39;48.47;;;38.77;;
12363;SDS011;6246;50.826;4.712;2023-12-22T09:07:05;47.10;;;37.83;;
12363;SDS011;6246;50.826;4.712;2023-12-22T09:09:31;39.23;;;30.70;;
12363;SDS011;6246;50.826;4.712;2023-12-22T09:11:57;49.60;;;39.77;;
12363;SDS011;6246;50.826;4.712;2023-12-22T09:14:23;58.50;;;46.17;;
12363;SDS011;6246;50.826;4.712;2023-12-22T09:16:49;49.73;;;40.10;;
12363;SDS011;6246;50.826;4.712;2023-12-22T09:19:15;56.43;;;43.27;;
12363;SDS011;6246;50.826;4.712;2023-12-22T09:21:41;62.60;;;50.37;;
12363;SDS011;6246;50.826;4.712;2023-12-22T09:24:09;64.97;;;52.43;;
12363;SDS011;6246;50.826;4.712;2023-12-22T09:26:37;63.23;;;49.73;;
12363;SDS011;6246;50.826;4.712;2023-12-22T09:29:03;70.57;;;54.20;;
12363;SDS011;6246;50.826;4.712;2023-12-22T09:31:29;69.07;;;55.40;;
12363;SDS011;6246;50.826;4.712;2023-12-22T09:33:57;72.73;;;53.33;;
12363;SDS011;6246;50.826;4.712;2023-12-22T09:36:23;68.27;;;54.17;;
12363;SDS011;6246;50.826;4.712;2023-12-22T09:38:49;69.10;;;54.80;;
12363;SDS011;6246;50.826;4.712;2023-12-22T09:41:15;65.63;;;52.57;;
12363;SDS011;6246;50.826;4.712;2023-12-22T09:43:41;71.57;;;57.13;;
12363;SDS011;6246;50.826;4.712;2023-12-22T09:46:08;69.00;;;56.90;;
12363;SDS011;6246;50.826;4.712;2023-12-22T09:48:34;67.50;;;52.83;;
12363;SDS011;6246;50.826;4.712;2023-12-22T09:51:04;72.33;;;58.43;;
12363;SDS011;6246;50.826;4.712;2023-12-22T09:53:31;66.00;;;53.53;;
12363;SDS011;6246;50.826;4.712;2023-12-22T09:55:57;70.13;;;55.33;;
12363;SDS011;6246;50.826;4.712;2023-12-22T09:58:24;74.20;;;56.90;;
12363;SDS011;6246;50.826;4.712;2023-12-22T10:00:50;68.43;;;54.33;;
12363;SDS011;6246;50.826;4.712;2023-12-22T10:03:16;75.17;;;60.60;;
12363;SDS011;6246;50.826;4.712;2023-12-22T10:05:44;72.97;;;58.93;;
12363;SDS011;6246;50.826;4.712;2023-12-22T10:08:10;68.23;;;54.67;;
12363;SDS011;6246;50.826;4.712;2023-12-22T10:10:40;77.00;;;60.17;;
12363;SDS011;6246;50.826;4.712;2023-12-22T10:13:08;73.03;;;57.60;;
12363;SDS011;6246;50.826;4.712;2023-12-22T10:15:36;67.63;;;56.87;;
12363;SDS011;6246;50.826;4.712;2023-12-22T10:18:04;72.93;;;57.93;;
12363;SDS011;6246;50.826;4.712;2023-12-22T10:20:31;73.00;;;57.77;;
12363;SDS011;6246;50.826;4.712;2023-12-22T10:22:57;73.07;;;57.53;;
12363;SDS011;6246;50.826;4.712;2023-12-22T10:25:27;74.03;;;56.23;;
12363;SDS011;6246;50.826;4.712;2023-12-22T10:27:54;70.83;;;56.63;;
12363;SDS011;6246;50.826;4.712;2023-12-22T10:30:20;66.03;;;52.70;;
12363;SDS011;6246;50.826;4.712;2023-12-22T10:32:49;84.93;;;69.17;;
12363;SDS011;6246;50.826;4.712;2023-12-22T10:35:16;80.43;;;64.33;;
12363;SDS011;6246;50.826;4.712;2023-12-22T10:37:42;72.83;;;60.03;;
12363;SDS011;6246;50.826;4.712;2023-12-22T10:40:08;76.83;;;61.20;;
12363;SDS011;6246;50.826;4.712;2023-12-22T10:42:35;78.23;;;61.50;;
12363;SDS011;6246;50.826;4.712;2023-12-22T10:45:02;80.17;;;64.50;;
12363;SDS011;6246;50.826;4.712;2023-12-22T10:47:28;73.43;;;58.17;;
12363;SDS011;6246;50.826;4.712;2023-12-22T10:49:54;83.17;;;63.10;;
12363;SDS011;6246;50.826;4.712;2023-12-22T10:52:20;78.30;;;59.50;;
12363;SDS011;6246;50.826;4.712;2023-12-22T10:54:47;74.80;;;57.53;;
12363;SDS011;6246;50.826;4.712;2023-12-22T10:57:17;68.13;;;53.37;;
12363;SDS011;6246;50.826;4.712;2023-12-22T10:59:45;74.20;;;52.47;;
12363;SDS011;6246;50.826;4.712;2023-12-22T11:02:17;67.73;;;51.63;;
12363;SDS011;6246;50.826;4.712;2023-12-22T11:04:57;66.10;;;52.33;;
12363;SDS011;6246;50.826;4.712;2023-12-22T11:07:23;68.47;;;50.57;;
12363;SDS011;6246;50.826;4.712;2023-12-22T11:09:51;64.43;;;49.83;;
12363;SDS011;6246;50.826;4.712;2023-12-22T11:12:18;62.10;;;50.10;;
12363;SDS011;6246;50.826;4.712;2023-12-22T11:14:45;62.53;;;48.67;;
12363;SDS011;6246;50.826;4.712;2023-12-22T11:17:15;67.03;;;49.53;;
12363;SDS011;6246;50.826;4.712;2023-12-22T11:19:42;65.03;;;50.47;;
12363;SDS011;6246;50.826;4.712;2023-12-22T11:22:08;62.43;;;49.53;;
12363;SDS011;6246;50.826;4.712;2023-12-22T11:24:35;67.80;;;50.20;;
12363;SDS011;6246;50.826;4.712;2023-12-22T11:27:01;62.90;;;49.47;;
12363;SDS011;6246;50.826;4.712;2023-12-22T11:29:28;65.10;;;47.87;;
12363;SDS011;6246;50.826;4.712;2023-12-22T11:31:54;59.83;;;46.30;;
12363;SDS011;6246;50.826;4.712;2023-12-22T11:34:21;62.20;;;46.73;;
12363;SDS011;6246;50.826;4.712;2023-12-22T11:36:47;57.60;;;45.20;;
12363;SDS011;6246;50.826;4.712;2023-12-22T11:39:14;57.17;;;44.70;;
12363;SDS011;6246;50.826;4.712;2023-12-22T11:41:40;56.60;;;43.83;;
12363;SDS011;6246;50.826;4.712;2023-12-22T11:44:06;56.13;;;44.93;;
12363;SDS011;6246;50.826;4.712;2023-12-22T11:46:33;61.10;;;45.50;;
12363;SDS011;6246;50.826;4.712;2023-12-22T11:48:59;56.10;;;42.60;;
12363;SDS011;6246;50.826;4.712;2023-12-22T11:51:25;51.20;;;41.23;;
12363;SDS011;6246;50.826;4.712;2023-12-22T11:53:56;54.77;;;41.77;;
12363;SDS011;6246;50.826;4.712;2023-12-22T11:56:22;53.60;;;41.47;;
12363;SDS011;6246;50.826;4.712;2023-12-22T11:58:51;50.57;;;40.63;;
12363;SDS011;6246;50.826;4.712;2023-12-22T12:01:21;52.67;;;40.13;;
12363;SDS011;6246;50.826;4.712;2023-12-22T12:03:49;51.20;;;40.40;;
12363;SDS011;6246;50.826;4.712;2023-12-22T12:06:22;46.70;;;37.83;;
12363;SDS011;6246;50.826;4.712;2023-12-22T12:08:48;47.83;;;38.07;;
12363;SDS011;6246;50.826;4.712;2023-12-22T12:11:15;48.53;;;38.07;;
12363;SDS011;6246;50.826;4.712;2023-12-22T12:13:42;50.00;;;38.50;;
12363;SDS011;6246;50.826;4.712;2023-12-22T12:16:10;47.60;;;36.73;;
12363;SDS011;6246;50.826;4.712;2023-12-22T12:18:36;48.57;;;36.93;;
12363;SDS011;6246;50.826;4.712;2023-12-22T12:21:02;48.20;;;37.03;;
12363;SDS011;6246;50.826;4.712;2023-12-22T12:23:29;46.90;;;35.87;;
12363;SDS011;6246;50.826;4.712;2023-12-22T12:25:55;45.43;;;35.17;;
12363;SDS011;6246;50.826;4.712;2023-12-22T12:28:31;45.00;;;34.60;;
12363;SDS011;6246;50.826;4.712;2023-12-22T12:31:01;46.43;;;35.13;;
12363;SDS011;6246;50.826;4.712;2023-12-22T12:33:28;46.27;;;35.03;;
12363;SDS011;6246;50.826;4.712;2023-12-22T12:35:59;44.17;;;34.73;;
12363;SDS011;6246;50.826;4.712;2023-12-22T12:38:35;43.40;;;33.37;;
12363;SDS011;6246;50.826;4.712;2023-12-22T12:41:03;41.13;;;32.17;;
12363;SDS011;6246;50.826;4.712;2023-12-22T12:43:32;41.73;;;31.93;;
12363;SDS011;6246;50.826;4.712;2023-12-22T12:46:05;39.60;;;31.50;;
12363;SDS011;6246;50.826;4.712;2023-12-22T12:48:31;38.27;;;30.93;;
12363;SDS011;6246;50.826;4.712;2023-12-22T12:51:04;39.17;;;31.57;;
12363;SDS011;6246;50.826;4.712;2023-12-22T12:53:31;39.00;;;31.07;;
12363;SDS011;6246;50.826;4.712;2023-12-22T12:56:00;40.13;;;30.47;;
12363;SDS011;6246;50.826;4.712;2023-12-22T12:58:29;35.70;;;28.53;;
12363;SDS011;6246;50.826;4.712;2023-12-22T13:01:06;34.47;;;27.10;;
12363;SDS011;6246;50.826;4.712;2023-12-22T13:03:32;37.60;;;28.77;;
12363;SDS011;6246;50.826;4.712;2023-12-22T13:06:07;38.50;;;29.63;;
12363;SDS011;6246;50.826;4.712;2023-12-22T13:08:33;36.90;;;28.27;;
12363;SDS011;6246;50.826;4.712;2023-12-22T13:11:00;40.10;;;27.37;;
12363;SDS011;6246;50.826;4.712;2023-12-22T13:13:27;34.27;;;27.43;;
12363;SDS011;6246;50.826;4.712;2023-12-22T13:15:53;35.30;;;25.97;;
12363;SDS011;6246;50.826;4.712;2023-12-22T13:18:19;34.73;;;25.63;;
12363;SDS011;6246;50.826;4.712;2023-12-22T13:20:45;32.97;;;25.37;;
12363;SDS011;6246;50.826;4.712;2023-12-22T13:23:11;34.73;;;24.27;;
12363;SDS011;6246;50.826;4.712;2023-12-22T13:25:38;33.27;;;23.50;;
12363;SDS011;6246;50.826;4.712;2023-12-22T13:28:04;35.07;;;24.37;;
12363;SDS011;6246;50.826;4.712;2023-12-22T13:30:34;31.73;;;23.60;;
12363;SDS011;6246;50.826;4.712;2023-12-22T13:33:01;30.67;;;23.57;;
12363;SDS011;6246;50.826;4.712;2023-12-22T13:35:27;31.60;;;24.93;;
12363;SDS011;6246;50.826;4.712;2023-12-22T13:37:54;38.87;;;27.57;;
12363;SDS011;6246;50.826;4.712;2023-12-22T13:40:21;43.33;;;30.53;;
12363;SDS011;6246;50.826;4.712;2023-12-22T13:42:56;42.73;;;31.03;;
12363;SDS011;6246;50.826;4.712;2023-12-22T13:45:22;34.90;;;27.17;;
12363;SDS011;6246;50.826;4.712;2023-12-22T13:47:49;39.10;;;28.00;;
12363;SDS011;6246;50.826;4.712;2023-12-22T13:50:15;37.60;;;29.20;;
12363;SDS011;6246;50.826;4.712;2023-12-22T13:52:41;41.97;;;30.40;;
12363;SDS011;6246;50.826;4.712;2023-12-22T13:55:11;37.73;;;30.00;;
12363;SDS011;6246;50.826;4.712;2023-12-22T13:57:37;38.40;;;29.10;;
12363;SDS011;6246;50.826;4.712;2023-12-22T14:00:46;37.23;;;29.43;;
12363;SDS011;6246;50.826;4.712;2023-12-22T14:02:54;36.60;;;28.37;;
12363;SDS011;6246;50.826;4.712;2023-12-22T14:05:20;35.40;;;27.87;;
12363;SDS011;6246;50.826;4.712;2023-12-22T14:07:46;38.10;;;28.13;;
12363;SDS011;6246;50.826;4.712;2023-12-22T14:10:13;34.97;;;28.07;;
12363;SDS011;6246;50.826;4.712;2023-12-22T14:12:39;31.77;;;26.77;;
12363;SDS011;6246;50.826;4.712;2023-12-22T14:15:09;34.23;;;27.20;;
12363;SDS011;6246;50.826;4.712;2023-12-22T14:17:36;34.23;;;26.80;;
12363;SDS011;6246;50.826;4.712;2023-12-22T14:20:02;35.27;;;27.93;;
12363;SDS011;6246;50.826;4.712;2023-12-22T14:22:34;33.40;;;25.47;;
12363;SDS011;6246;50.826;4.712;2023-12-22T14:25:00;31.83;;;25.23;;
12363;SDS011;6246;50.826;4.712;2023-12-22T14:27:26;30.57;;;24.57;;
12363;SDS011;6246;50.826;4.712;2023-12-22T14:29:52;30.93;;;25.67;;
12363;SDS011;6246;50.826;4.712;2023-12-22T14:32:18;34.70;;;25.37;;
12363;SDS011;6246;50.826;4.712;2023-12-22T14:34:45;30.27;;;24.50;;
12363;SDS011;6246;50.826;4.712;2023-12-22T14:37:11;29.77;;;24.37;;
12363;SDS011;6246;50.826;4.712;2023-12-22T14:39:37;31.37;;;24.93;;
12363;SDS011;6246;50.826;4.712;2023-12-22T14:42:03;29.97;;;24.53;;